createdAt,value
2022-09-14T00:04:12.938Z,29
2022-09-14T00:10:05.959Z,28.3
2022-09-14T00:15:55.576Z,26.8
2022-09-14T00:21:56.898Z,30.1
2022-09-14T00:27:51.914Z,30
2022-09-14T00:33:48.779Z,31.6
2022-09-14T00:39:41.506Z,27.7
2022-09-14T00:45:48.088Z,25.5
2022-09-14T00:51:44.246Z,25
2022-09-14T00:57:46.209Z,23.5
2022-09-14T01:03:57.346Z,23.2
2022-09-14T01:09:57.041Z,25.9
2022-09-14T01:15:51.300Z,27.2
2022-09-14T01:21:43.833Z,31.1
2022-09-14T01:27:51.732Z,29.6
2022-09-14T01:33:46.192Z,31.2
2022-09-14T01:39:38.419Z,34.4
2022-09-14T01:45:35.267Z,33.1
2022-09-14T01:51:28.663Z,33.1
2022-09-14T01:57:20.957Z,34.9
2022-09-14T02:03:14.964Z,36.5
2022-09-14T02:09:12.088Z,35.9
2022-09-14T02:15:08.174Z,30.7
2022-09-14T02:21:04.448Z,30.6
2022-09-14T02:26:56.487Z,31.1
2022-09-14T02:32:47.329Z,30.9
2022-09-14T02:38:38.715Z,33.7
2022-09-14T02:44:31.302Z,30.1
2022-09-14T02:50:29.051Z,37.1
2022-09-14T02:56:21.136Z,35.6
2022-09-14T03:02:14.369Z,42.2
2022-09-14T03:08:06.713Z,35.5
2022-09-14T03:13:59.459Z,35.9
2022-09-14T03:19:52.458Z,41
2022-09-14T03:25:44.671Z,34.3
2022-09-14T03:31:37.719Z,34.7
2022-09-14T03:37:27.762Z,35.5
2022-09-14T03:43:19.665Z,29.1
2022-09-14T03:49:11.267Z,25.4
2022-09-14T03:55:03.376Z,23.8
2022-09-14T04:00:55.120Z,22.9
2022-09-14T04:06:47.122Z,16.8
2022-09-14T04:12:39.309Z,13.6
2022-09-14T04:18:32.017Z,10.6
2022-09-14T04:24:33.947Z,10.4
2022-09-14T04:30:25.610Z,10.7
2022-09-14T04:36:21.424Z,10.2
2022-09-14T04:42:14.125Z,11.1
2022-09-14T04:48:08.218Z,10.8
2022-09-14T04:54:03.279Z,11.7
2022-09-14T04:59:57.090Z,9.3
2022-09-14T05:05:53.676Z,9.6
2022-09-14T05:11:44.723Z,9.8
2022-09-14T05:17:37.062Z,12.4
2022-09-14T05:23:29.201Z,10.8
2022-09-14T05:29:24.763Z,10.7
2022-09-14T05:35:17.018Z,8.7
2022-09-14T05:41:08.036Z,10.3
2022-09-14T05:47:00.696Z,9.8
2022-09-14T05:52:52.772Z,10.8
2022-09-14T05:59:10.744Z,10.6
2022-09-14T06:05:22.022Z,8.9
2022-09-14T06:11:14.802Z,9.1
2022-09-14T06:17:17.589Z,9.6
2022-09-14T06:30:10.135Z,11.2
2022-09-14T06:36:26.599Z,12.5
2022-09-14T06:42:47.536Z,12.5
2022-09-14T06:48:44.054Z,11.9
2022-09-14T06:54:39.267Z,13
2022-09-14T07:00:34.646Z,11.4
2022-09-14T07:13:14.344Z,10.6
2022-09-14T07:19:25.425Z,9.6
2022-09-14T07:25:30.002Z,9.8
2022-09-14T07:31:26.127Z,10.7
2022-09-14T07:37:19.124Z,10.4
2022-09-14T07:43:12.501Z,8.4
2022-09-14T07:49:04.675Z,11.9
2022-09-14T07:54:56.666Z,11.2
2022-09-14T08:00:47.763Z,11.3
2022-09-14T08:06:40.114Z,9.4
2022-09-14T08:12:32.530Z,9
2022-09-14T08:18:25.929Z,7.4
2022-09-14T08:24:15.814Z,6.5
2022-09-14T08:30:10.184Z,5.5
2022-09-14T08:36:05.272Z,7
2022-09-14T08:42:01.110Z,6.1
2022-09-14T08:48:00.708Z,6.1
2022-09-14T09:00:37.749Z,7.2
2022-09-14T09:06:49.374Z,7.7
2022-09-14T09:12:40.881Z,5.6
2022-09-14T09:18:31.164Z,7.4
2022-09-14T09:24:23.021Z,7.7
2022-09-14T09:30:18.269Z,6.2
2022-09-14T09:36:11.287Z,7.6
2022-09-14T09:42:06.863Z,7.1
2022-09-14T09:48:10.986Z,6.4
2022-09-14T10:14:28.375Z,7.2
2022-09-14T10:34:02.161Z,49.8
2022-09-14T10:47:19.215Z,4.8
2022-09-14T10:53:09.181Z,6.1
2022-09-14T10:59:12.902Z,7.7
2022-09-14T11:38:12.927Z,26.9
2022-09-14T12:04:30.000Z,32
2022-09-14T12:10:54.169Z,30
2022-09-14T12:17:12.986Z,38.5
2022-09-14T12:24:09.892Z,49
2022-09-14T12:49:41.858Z,43
2022-09-14T12:55:46.746Z,42.6
2022-09-14T13:01:38.971Z,45.9
2022-09-14T13:07:32.627Z,48.5
2022-09-14T13:20:16.685Z,47.6
2022-09-14T13:26:13.288Z,52.2
2022-09-14T13:32:22.507Z,51.3
2022-09-14T13:38:11.933Z,57.9
2022-09-14T13:44:11.301Z,64.3
2022-09-14T13:50:04.554Z,71
2022-09-14T13:56:01.095Z,79.9
2022-09-14T14:01:54.927Z,84.6
2022-09-14T14:07:48.529Z,81.2
2022-09-14T14:13:48.366Z,75.3
2022-09-14T14:19:57.153Z,76.2
2022-09-14T14:25:51.200Z,62.9
2022-09-14T14:32:03.594Z,60.4
2022-09-14T14:37:59.504Z,62.5
2022-09-14T14:50:28.489Z,50.5
2022-09-14T14:56:25.529Z,55.3
2022-09-14T15:02:32.575Z,55.4
2022-09-14T15:08:41.334Z,36.3
2022-09-14T15:15:02.076Z,30.2
2022-09-14T15:47:20.381Z,31.1
2022-09-14T16:01:34.861Z,33.4
2022-09-14T16:07:28.140Z,28.6
2022-09-14T16:13:32.895Z,25.8
2022-09-14T16:19:23.925Z,18.7
2022-09-14T16:25:15.697Z,16.9
2022-09-14T16:37:02.860Z,14.5
2022-09-14T16:42:54.805Z,14.4
2022-09-14T16:55:37.707Z,18.7
2022-09-14T17:01:47.885Z,21
2022-09-14T17:08:07.690Z,22.5
2022-09-14T17:13:59.574Z,27.9
2022-09-14T17:20:20.129Z,41.9
2022-09-14T17:26:14.785Z,41.1
2022-09-14T17:32:23.466Z,35.4
2022-09-14T17:38:52.020Z,38.5
2022-09-14T17:44:41.578Z,39.8
2022-09-14T17:50:33.014Z,43.3
2022-09-14T17:56:24.425Z,44
2022-09-14T18:02:15.665Z,42.9
2022-09-14T18:08:06.584Z,46.1
2022-09-14T18:14:05.003Z,66.6
2022-09-14T18:20:27.575Z,74
2022-09-14T18:26:53.410Z,88.9
2022-09-14T18:57:33.108Z,71.6
2022-09-14T19:03:51.943Z,68.8
2022-09-14T19:16:13.570Z,68
2022-09-14T19:40:35.160Z,79
2022-09-14T19:59:17.740Z,81.7
2022-09-14T20:05:36.507Z,86.2
2022-09-14T20:39:31.842Z,90.2
2022-09-14T20:45:48.678Z,93.5
2022-09-14T21:11:25.303Z,99.1
2022-09-14T21:17:16.650Z,97
2022-09-14T21:23:08.126Z,112.3
2022-09-14T21:29:01.183Z,106.6
2022-09-14T21:35:00.649Z,108.5
2022-09-14T21:40:51.653Z,107.6
2022-09-14T21:46:47.526Z,125.3
2022-09-14T21:52:52.751Z,126.7
2022-09-14T21:58:46.939Z,91.4
2022-09-14T22:04:49.873Z,77.7
2022-09-14T22:10:45.123Z,84.7
2022-09-14T22:16:55.354Z,81.9
2022-09-14T22:22:59.676Z,83.3
2022-09-14T22:29:17.237Z,83.4
2022-09-14T22:35:41.597Z,94.3
2022-09-14T23:01:07.374Z,93.9
2022-09-14T23:07:12.271Z,95.3
2022-09-14T23:13:03.982Z,98.1
2022-09-14T23:18:55.104Z,102.6
2022-09-14T23:24:45.844Z,103.8
2022-09-14T23:30:36.000Z,94.6
2022-09-14T23:36:26.566Z,97.5
2022-09-14T23:42:17.779Z,98.3
2022-09-14T23:48:07.558Z,101.9
2022-09-14T23:53:55.509Z,99.6
2022-09-14T23:59:46.227Z,104.7
